Terminal Aerodrome Forecast
Issued by NWS Cleveland, OH

Home | Current Version | Previous Version | Graphics & Text | Print | Product List | Glossary On
Versions: 1 2 3 4 5 6 7 8 9 10 11 12 13 14 15 16
000
FTUS41 KCLE 040500
TAFERI
TAF
KERI 040540Z 0406/0506 25015G25KT P6SM OVC015
     FM041000 25008KT P6SM OVC022
     FM042100 27010KT P6SM OVC050
     FM050300 33009KT P6SM OVC025=

USA.gov is the U.S. government's official web portal to all federal, state and local government web resources and services.